Ithomi — V7UZ9 — position and weather

sailwx.info

Track history (hours):
 
Tides and Currents Weather Stations Pressure Air Temp Water Temp Dewpoint Dewpoint Depression Visibility Wind Speed Wind Dir Waves Ship Positions

Ithomi

Last reported at 2017-Oct-17 17:56 UTC. Time now 2017-Oct-18 22:28 UTC.
Position N 01°11' E 103°40'.

Length 189 m; draft 12.6 m.

Type: Cargo ship. MMSI: 538004069.

Date/timePositionNaut miles runAvg speedWind from/ knotsBaromVisibWave heightAir tempDewpointWater temp
2017-Oct-17 17:56N 01°11' E 103°40'2014.2
2017-Oct-17 16:34N 01°17' E 103°59'0 0.3
2017-Oct-17 16:21N 01°17' E 103°58'0 0.0
2017-Oct-17 15:58N 01°17' E 103°58'0 0.1
2017-Oct-17 14:57N 01°17' E 103°58'0 0.0
2017-Oct-17 12:57N 01°17' E 103°58'0 0.0
2017-Oct-17 12:07N 01°17' E 103°58'3717.1
2017-Oct-17 09:57N 01°18' E 103°21'713.6
2017-Oct-17 09:27N 01°14' E 103°27'613.6
2017-Oct-17 08:59N 01°12' E 103°33'612.0
2017-Oct-17 08:30N 01°11' E 103°38'610.7
2017-Oct-17 07:59N 01°09' E 103°43'5 9.4
2017-Oct-17 07:30N 01°10' E 103°48'510.1
2017-Oct-17 07:01N 01°12' E 103°52'5 9.3
2017-Oct-17 06:30N 01°14' E 103°57'3 6.1
2017-Oct-17 05:59N 01°16' E 103°59'2 3.3
2017-Oct-17 05:28N 01°17' E 103°59'0 0.0
2017-Oct-17 04:58N 01°17' E 103°59'0 0.0
2017-Oct-17 04:24N 01°17' E 103°59'0 0.0
2017-Oct-17 03:58N 01°17' E 103°59'0 0.0
2017-Oct-17 03:13N 01°17' E 103°59'0 0.0
2017-Oct-17 03:00N 01°17' E 103°59'0 0.0
2017-Oct-17 01:40N 01°17' E 103°59'0 0.0
2017-Oct-17 01:12N 01°17' E 103°59'0 0.0
2017-Oct-17 00:59N 01°17' E 103°59'0 0.0
2017-Oct-17 00:23N 01°17' E 103°59'0 0.0
2017-Oct-16 23:44N 01°17' E 103°59'0 0.1
2017-Oct-16 23:26N 01°17' E 103°59'0 0.3
2017-Oct-16 22:53N 01°17' E 103°58'0 0.2
2017-Oct-16 22:13N 01°17' E 103°58'0 0.2
2017-Oct-16 21:49N 01°17' E 103°58'0 0.5
2017-Oct-16 21:28N 01°17' E 103°58'0 0.0
2017-Oct-16 20:53N 01°17' E 103°58'0 0.2
2017-Oct-16 19:43N 01°17' E 103°59'0 0.0
2017-Oct-16 19:19N 01°17' E 103°59'1 2.9
2017-Oct-16 18:50N 01°16' E 103°59'0 0.5
2017-Oct-16 18:30N 01°16' E 103°59'0 0.5
2017-Oct-16 18:00N 01°16' E 103°59'0 0.6
2017-Oct-16 17:30N 01°16' E 103°59'0 0.6
2017-Oct-16 17:00N 01°16' E 103°59'0 0.6
2017-Oct-16 16:30N 01°16' E 103°60'0 0.7
2017-Oct-16 15:59N 01°16' E 104°00'0 0.9
2017-Oct-16 15:30N 01°16' E 104°01'3 1.6
2017-Oct-16 13:49N 01°17' E 103°58'0 0.0
2017-Oct-16 09:19N 01°17' E 103°58'0 0.0
2017-Oct-16 09:00N 01°17' E 103°58'0 0.0
2017-Oct-16 08:30N 01°17' E 103°58'0 0.3
2017-Oct-16 08:00N 01°17' E 103°58'0 0.2
2017-Oct-16 07:30N 01°17' E 103°58'2 3.2
2017-Oct-16 06:59N 01°16' E 103°59'2 3.5
2017-Oct-16 06:30N 01°16' E 104°01'  
Track history (hours):
 
Tides and Currents Weather Stations Pressure Air Temp Water Temp Dewpoint Dewpoint Depression Visibility Wind Speed Wind Dir Waves Ship Positions

Ithomi

Last reported at 2017-Oct-17 17:56 UTC. Time now 2017-Oct-18 22:28 UTC.
Position N 01°11' E 103°40'.

Length 189 m; draft 12.6 m.

Type: Cargo ship. MMSI: 538004069.

Date/timePositionNaut miles runAvg speedWind from/ knotsBaromVisibWave heightAir tempDewpointWater temp
2017-Oct-17 17:56N 01°11' E 103°40'2014.2
2017-Oct-17 16:34N 01°17' E 103°59'0 0.3
2017-Oct-17 16:21N 01°17' E 103°58'0 0.0
2017-Oct-17 15:58N 01°17' E 103°58'0 0.1
2017-Oct-17 14:57N 01°17' E 103°58'0 0.0
2017-Oct-17 12:57N 01°17' E 103°58'0 0.0
2017-Oct-17 12:07N 01°17' E 103°58'3717.1
2017-Oct-17 09:57N 01°18' E 103°21'713.6
2017-Oct-17 09:27N 01°14' E 103°27'613.6
2017-Oct-17 08:59N 01°12' E 103°33'612.0
2017-Oct-17 08:30N 01°11' E 103°38'610.7
2017-Oct-17 07:59N 01°09' E 103°43'5 9.4
2017-Oct-17 07:30N 01°10' E 103°48'510.1
2017-Oct-17 07:01N 01°12' E 103°52'5 9.3
2017-Oct-17 06:30N 01°14' E 103°57'3 6.1
2017-Oct-17 05:59N 01°16' E 103°59'2 3.3
2017-Oct-17 05:28N 01°17' E 103°59'0 0.0
2017-Oct-17 04:58N 01°17' E 103°59'0 0.0
2017-Oct-17 04:24N 01°17' E 103°59'0 0.0
2017-Oct-17 03:58N 01°17' E 103°59'0 0.0
2017-Oct-17 03:13N 01°17' E 103°59'0 0.0
2017-Oct-17 03:00N 01°17' E 103°59'0 0.0
2017-Oct-17 01:40N 01°17' E 103°59'0 0.0
2017-Oct-17 01:12N 01°17' E 103°59'0 0.0
2017-Oct-17 00:59N 01°17' E 103°59'0 0.0
2017-Oct-17 00:23N 01°17' E 103°59'0 0.0
2017-Oct-16 23:44N 01°17' E 103°59'0 0.1
2017-Oct-16 23:26N 01°17' E 103°59'0 0.3
2017-Oct-16 22:53N 01°17' E 103°58'0 0.2
2017-Oct-16 22:13N 01°17' E 103°58'0 0.2
2017-Oct-16 21:49N 01°17' E 103°58'0 0.5
2017-Oct-16 21:28N 01°17' E 103°58'0 0.0
2017-Oct-16 20:53N 01°17' E 103°58'0 0.2
2017-Oct-16 19:43N 01°17' E 103°59'0 0.0
2017-Oct-16 19:19N 01°17' E 103°59'1 2.9
2017-Oct-16 18:50N 01°16' E 103°59'0 0.5
2017-Oct-16 18:30N 01°16' E 103°59'0 0.5
2017-Oct-16 18:00N 01°16' E 103°59'0 0.6
2017-Oct-16 17:30N 01°16' E 103°59'0 0.6
2017-Oct-16 17:00N 01°16' E 103°59'0 0.6
2017-Oct-16 16:30N 01°16' E 103°60'0 0.7
2017-Oct-16 15:59N 01°16' E 104°00'0 0.9
2017-Oct-16 15:30N 01°16' E 104°01'3 1.6
2017-Oct-16 13:49N 01°17' E 103°58'0 0.0
2017-Oct-16 09:19N 01°17' E 103°58'0 0.0
2017-Oct-16 09:00N 01°17' E 103°58'0 0.0
2017-Oct-16 08:30N 01°17' E 103°58'0 0.3
2017-Oct-16 08:00N 01°17' E 103°58'0 0.2
2017-Oct-16 07:30N 01°17' E 103°58'2 3.2
2017-Oct-16 06:59N 01°16' E 103°59'2 3.5
2017-Oct-16 06:30N 01°16' E 104°01'  

Dump ship's entire track history